sensor_id;sensor_type;location;lat;lon;timestamp;temperature;humidity
51637;DHT22;37713;53.254;6.460;2024-01-16T00:01:17;-0.20;99.90
51637;DHT22;37713;53.254;6.460;2024-01-16T00:03:43;-0.20;99.90
51637;DHT22;37713;53.254;6.460;2024-01-16T00:06:10;-0.30;99.90
51637;DHT22;37713;53.254;6.460;2024-01-16T00:08:36;-0.30;99.90
51637;DHT22;37713;53.254;6.460;2024-01-16T00:11:02;-0.30;99.90
51637;DHT22;37713;53.254;6.460;2024-01-16T00:13:28;-0.20;99.90
51637;DHT22;37713;53.254;6.460;2024-01-16T00:15:54;-0.20;99.90
51637;DHT22;37713;53.254;6.460;2024-01-16T00:18:22;-0.20;99.90
51637;DHT22;37713;53.254;6.460;2024-01-16T00:20:48;-0.30;99.90
51637;DHT22;37713;53.254;6.460;2024-01-16T00:23:14;-0.30;99.90
51637;DHT22;37713;53.254;6.460;2024-01-16T00:25:40;-0.40;99.90
51637;DHT22;37713;53.254;6.460;2024-01-16T00:28:06;-0.40;99.90
51637;DHT22;37713;53.254;6.460;2024-01-16T00:30:33;-0.40;99.90
51637;DHT22;37713;53.254;6.460;2024-01-16T00:32:59;-0.50;99.90
51637;DHT22;37713;53.254;6.460;2024-01-16T00:35:25;-0.50;99.90
51637;DHT22;37713;53.254;6.460;2024-01-16T00:37:51;-0.60;99.90
51637;DHT22;37713;53.254;6.460;2024-01-16T00:40:17;-0.60;99.90
51637;DHT22;37713;53.254;6.460;2024-01-16T00:42:43;-0.70;99.90
51637;DHT22;37713;53.254;6.460;2024-01-16T00:45:09;-0.70;99.90
51637;DHT22;37713;53.254;6.460;2024-01-16T00:47:35;-0.70;99.90
51637;DHT22;37713;53.254;6.460;2024-01-16T00:50:01;-0.70;99.90
51637;DHT22;37713;53.254;6.460;2024-01-16T00:52:28;-0.70;99.90
51637;DHT22;37713;53.254;6.460;2024-01-16T00:54:54;-0.70;99.90
51637;DHT22;37713;53.254;6.460;2024-01-16T00:57:19;-0.50;99.90
51637;DHT22;37713;53.254;6.460;2024-01-16T00:59:46;-0.50;99.90
51637;DHT22;37713;53.254;6.460;2024-01-16T01:02:12;-0.50;99.90
51637;DHT22;37713;53.254;6.460;2024-01-16T01:04:38;-0.50;99.90
51637;DHT22;37713;53.254;6.460;2024-01-16T01:07:04;-0.50;99.90
51637;DHT22;37713;53.254;6.460;2024-01-16T01:09:32;-0.60;99.90
51637;DHT22;37713;53.254;6.460;2024-01-16T01:11:58;-0.60;99.90
51637;DHT22;37713;53.254;6.460;2024-01-16T01:14:24;-0.60;99.90
51637;DHT22;37713;53.254;6.460;2024-01-16T01:16:52;-0.60;99.90
51637;DHT22;37713;53.254;6.460;2024-01-16T01:19:18;-0.70;99.90
51637;DHT22;37713;53.254;6.460;2024-01-16T01:21:44;-0.70;99.90
51637;DHT22;37713;53.254;6.460;2024-01-16T01:24:10;-0.70;99.90
51637;DHT22;37713;53.254;6.460;2024-01-16T01:26:36;-0.80;99.90
51637;DHT22;37713;53.254;6.460;2024-01-16T01:29:01;-0.70;99.90
51637;DHT22;37713;53.254;6.460;2024-01-16T01:31:27;-0.60;99.90
51637;DHT22;37713;53.254;6.460;2024-01-16T01:33:53;-0.80;99.90
51637;DHT22;37713;53.254;6.460;2024-01-16T01:36:19;-0.80;99.90
51637;DHT22;37713;53.254;6.460;2024-01-16T01:38:45;-0.80;99.90
51637;DHT22;37713;53.254;6.460;2024-01-16T01:41:11;-0.80;99.90
51637;DHT22;37713;53.254;6.460;2024-01-16T01:43:39;-0.80;99.90
51637;DHT22;37713;53.254;6.460;2024-01-16T01:46:12;-0.80;99.90
51637;DHT22;37713;53.254;6.460;2024-01-16T01:48:43;-0.70;99.90
51637;DHT22;37713;53.254;6.460;2024-01-16T01:51:13;-0.70;99.90
51637;DHT22;37713;53.254;6.460;2024-01-16T01:53:42;-0.70;99.90
51637;DHT22;37713;53.254;6.460;2024-01-16T01:56:11;-0.70;99.90
51637;DHT22;37713;53.254;6.460;2024-01-16T01:58:40;-0.50;99.90
51637;DHT22;37713;53.254;6.460;2024-01-16T02:01:09;-0.70;99.90
51637;DHT22;37713;53.254;6.460;2024-01-16T02:03:42;-0.70;99.90
51637;DHT22;37713;53.254;6.460;2024-01-16T02:06:08;-0.70;99.90
51637;DHT22;37713;53.254;6.460;2024-01-16T02:08:35;-0.70;99.90
51637;DHT22;37713;53.254;6.460;2024-01-16T02:11:00;-0.70;99.90
51637;DHT22;37713;53.254;6.460;2024-01-16T02:13:27;-0.80;99.90
51637;DHT22;37713;53.254;6.460;2024-01-16T02:15:53;-0.80;99.90
51637;DHT22;37713;53.254;6.460;2024-01-16T02:18:18;-0.80;99.90
51637;DHT22;37713;53.254;6.460;2024-01-16T02:20:46;-0.80;99.90
51637;DHT22;37713;53.254;6.460;2024-01-16T02:23:14;-0.80;99.90
51637;DHT22;37713;53.254;6.460;2024-01-16T02:25:43;-0.80;99.90
51637;DHT22;37713;53.254;6.460;2024-01-16T02:28:10;-0.80;99.90
51637;DHT22;37713;53.254;6.460;2024-01-16T02:30:36;-0.80;99.90
51637;DHT22;37713;53.254;6.460;2024-01-16T02:33:01;-0.80;99.90
51637;DHT22;37713;53.254;6.460;2024-01-16T02:35:29;-0.80;99.90
51637;DHT22;37713;53.254;6.460;2024-01-16T02:37:55;-0.70;99.90
51637;DHT22;37713;53.254;6.460;2024-01-16T02:40:20;-0.70;99.90
51637;DHT22;37713;53.254;6.460;2024-01-16T02:42:46;-0.70;99.90
51637;DHT22;37713;53.254;6.460;2024-01-16T02:45:12;-0.60;99.90
51637;DHT22;37713;53.254;6.460;2024-01-16T02:47:38;-0.60;99.90
51637;DHT22;37713;53.254;6.460;2024-01-16T02:50:05;-0.60;99.90
51637;DHT22;37713;53.254;6.460;2024-01-16T02:52:30;-0.60;99.90
51637;DHT22;37713;53.254;6.460;2024-01-16T02:54:56;-0.70;99.90
51637;DHT22;37713;53.254;6.460;2024-01-16T02:57:22;-0.70;99.90
51637;DHT22;37713;53.254;6.460;2024-01-16T02:59:48;-0.80;99.90
51637;DHT22;37713;53.254;6.460;2024-01-16T03:02:14;-0.80;99.90
51637;DHT22;37713;53.254;6.460;2024-01-16T03:04:40;-0.90;99.90
51637;DHT22;37713;53.254;6.460;2024-01-16T03:07:06;-0.90;99.90
51637;DHT22;37713;53.254;6.460;2024-01-16T03:09:32;-1.00;99.90
51637;DHT22;37713;53.254;6.460;2024-01-16T03:11:59;-1.00;99.90
51637;DHT22;37713;53.254;6.460;2024-01-16T03:14:25;-1.10;99.90
51637;DHT22;37713;53.254;6.460;2024-01-16T03:16:50;-1.10;99.90
51637;DHT22;37713;53.254;6.460;2024-01-16T03:19:16;-1.10;99.90
51637;DHT22;37713;53.254;6.460;2024-01-16T03:21:42;-1.20;99.90
51637;DHT22;37713;53.254;6.460;2024-01-16T03:24:08;-1.20;99.90
51637;DHT22;37713;53.254;6.460;2024-01-16T03:26:36;-1.20;99.90
51637;DHT22;37713;53.254;6.460;2024-01-16T03:29:03;-1.20;99.90
51637;DHT22;37713;53.254;6.460;2024-01-16T03:31:30;-1.20;99.90
51637;DHT22;37713;53.254;6.460;2024-01-16T03:33:56;-1.30;99.90
51637;DHT22;37713;53.254;6.460;2024-01-16T03:36:22;-1.20;99.90
51637;DHT22;37713;53.254;6.460;2024-01-16T03:38:48;-1.30;99.90
51637;DHT22;37713;53.254;6.460;2024-01-16T03:41:14;-1.30;99.90
51637;DHT22;37713;53.254;6.460;2024-01-16T03:43:40;-1.00;99.90
51637;DHT22;37713;53.254;6.460;2024-01-16T03:46:06;-1.30;99.90
51637;DHT22;37713;53.254;6.460;2024-01-16T03:48:32;-1.30;99.90
51637;DHT22;37713;53.254;6.460;2024-01-16T03:50:58;-1.30;99.90
51637;DHT22;37713;53.254;6.460;2024-01-16T03:53:24;-1.30;99.90
51637;DHT22;37713;53.254;6.460;2024-01-16T03:55:51;-1.30;99.90
51637;DHT22;37713;53.254;6.460;2024-01-16T03:58:17;-1.30;99.90
51637;DHT22;37713;53.254;6.460;2024-01-16T04:00:43;-1.30;99.90
51637;DHT22;37713;53.254;6.460;2024-01-16T04:03:09;-1.20;99.90
51637;DHT22;37713;53.254;6.460;2024-01-16T04:05:35;-1.00;99.90
51637;DHT22;37713;53.254;6.460;2024-01-16T04:08:01;-1.20;99.90
51637;DHT22;37713;53.254;6.460;2024-01-16T04:10:27;-1.20;99.90
51637;DHT22;37713;53.254;6.460;2024-01-16T04:12:53;-1.20;99.90
51637;DHT22;37713;53.254;6.460;2024-01-16T04:15:19;-1.20;99.90
51637;DHT22;37713;53.254;6.460;2024-01-16T04:17:44;-1.10;99.90
51637;DHT22;37713;53.254;6.460;2024-01-16T04:20:11;-1.10;99.90
51637;DHT22;37713;53.254;6.460;2024-01-16T04:22:36;-1.00;99.90
51637;DHT22;37713;53.254;6.460;2024-01-16T04:25:03;-0.80;99.90
51637;DHT22;37713;53.254;6.460;2024-01-16T04:27:31;-1.00;99.90
51637;DHT22;37713;53.254;6.460;2024-01-16T04:29:57;-0.90;99.90
51637;DHT22;37713;53.254;6.460;2024-01-16T04:32:23;-0.60;99.90
51637;DHT22;37713;53.254;6.460;2024-01-16T04:34:49;-0.90;99.90
51637;DHT22;37713;53.254;6.460;2024-01-16T04:37:15;-0.70;99.90
51637;DHT22;37713;53.254;6.460;2024-01-16T04:39:40;-0.90;99.90
51637;DHT22;37713;53.254;6.460;2024-01-16T04:42:06;-0.90;99.90
51637;DHT22;37713;53.254;6.460;2024-01-16T04:44:32;-0.90;99.90
51637;DHT22;37713;53.254;6.460;2024-01-16T04:46:58;-0.80;99.90
51637;DHT22;37713;53.254;6.460;2024-01-16T04:49:23;-0.80;99.90
51637;DHT22;37713;53.254;6.460;2024-01-16T04:51:49;-0.70;99.90
51637;DHT22;37713;53.254;6.460;2024-01-16T04:54:15;-0.60;99.90
51637;DHT22;37713;53.254;6.460;2024-01-16T04:56:41;-0.50;99.90
51637;DHT22;37713;53.254;6.460;2024-01-16T04:59:10;-0.50;99.90
51637;DHT22;37713;53.254;6.460;2024-01-16T05:01:36;-0.50;99.90
51637;DHT22;37713;53.254;6.460;2024-01-16T05:04:01;-0.50;99.90
51637;DHT22;37713;53.254;6.460;2024-01-16T05:06:29;-0.50;99.90
51637;DHT22;37713;53.254;6.460;2024-01-16T05:08:55;-0.60;99.90
51637;DHT22;37713;53.254;6.460;2024-01-16T05:11:21;-0.60;99.90
51637;DHT22;37713;53.254;6.460;2024-01-16T05:13:47;-0.60;99.90
51637;DHT22;37713;53.254;6.460;2024-01-16T05:16:13;-0.60;99.90
51637;DHT22;37713;53.254;6.460;2024-01-16T05:18:41;-0.60;99.90
51637;DHT22;37713;53.254;6.460;2024-01-16T05:21:08;-0.60;99.90
51637;DHT22;37713;53.254;6.460;2024-01-16T05:23:34;-0.60;99.90
51637;DHT22;37713;53.254;6.460;2024-01-16T05:26:00;-0.50;99.90
51637;DHT22;37713;53.254;6.460;2024-01-16T05:28:26;-0.50;99.90
51637;DHT22;37713;53.254;6.460;2024-01-16T05:30:52;-0.50;99.90
51637;DHT22;37713;53.254;6.460;2024-01-16T05:33:18;-0.50;99.90
51637;DHT22;37713;53.254;6.460;2024-01-16T05:35:43;-0.50;99.90
51637;DHT22;37713;53.254;6.460;2024-01-16T05:38:09;-0.40;99.90
51637;DHT22;37713;53.254;6.460;2024-01-16T05:40:38;-0.40;99.90
51637;DHT22;37713;53.254;6.460;2024-01-16T05:43:04;-0.40;99.90
51637;DHT22;37713;53.254;6.460;2024-01-16T05:45:30;-0.40;99.90
51637;DHT22;37713;53.254;6.460;2024-01-16T05:47:56;-0.40;99.90
51637;DHT22;37713;53.254;6.460;2024-01-16T05:50:22;-0.40;99.90
51637;DHT22;37713;53.254;6.460;2024-01-16T05:52:47;-0.40;99.90
51637;DHT22;37713;53.254;6.460;2024-01-16T05:55:13;-0.40;99.90
51637;DHT22;37713;53.254;6.460;2024-01-16T05:57:39;-0.50;99.90
51637;DHT22;37713;53.254;6.460;2024-01-16T06:00:06;-0.50;99.90
51637;DHT22;37713;53.254;6.460;2024-01-16T06:02:32;-0.50;99.90
51637;DHT22;37713;53.254;6.460;2024-01-16T06:04:58;-0.50;99.90
51637;DHT22;37713;53.254;6.460;2024-01-16T06:07:24;-0.50;99.90
51637;DHT22;37713;53.254;6.460;2024-01-16T06:09:50;-0.60;99.90
51637;DHT22;37713;53.254;6.460;2024-01-16T06:12:16;-0.50;99.90
51637;DHT22;37713;53.254;6.460;2024-01-16T06:14:42;-0.60;99.90
51637;DHT22;37713;53.254;6.460;2024-01-16T06:17:08;-0.60;99.90
51637;DHT22;37713;53.254;6.460;2024-01-16T06:19:34;-0.60;99.90
51637;DHT22;37713;53.254;6.460;2024-01-16T06:22:00;-0.60;99.90
51637;DHT22;37713;53.254;6.460;2024-01-16T06:24:26;-0.60;99.90
51637;DHT22;37713;53.254;6.460;2024-01-16T06:26:52;-0.60;99.90
51637;DHT22;37713;53.254;6.460;2024-01-16T06:29:18;-0.60;99.90
51637;DHT22;37713;53.254;6.460;2024-01-16T06:31:44;-0.60;99.90
51637;DHT22;37713;53.254;6.460;2024-01-16T06:34:10;-0.60;99.90
51637;DHT22;37713;53.254;6.460;2024-01-16T06:36:36;-0.60;99.90
51637;DHT22;37713;53.254;6.460;2024-01-16T06:39:02;-0.60;99.90
51637;DHT22;37713;53.254;6.460;2024-01-16T06:41:29;-0.60;99.90
51637;DHT22;37713;53.254;6.460;2024-01-16T06:43:55;-0.60;99.90
51637;DHT22;37713;53.254;6.460;2024-01-16T06:46:21;-0.60;99.90
51637;DHT22;37713;53.254;6.460;2024-01-16T06:48:47;-0.70;99.90
51637;DHT22;37713;53.254;6.460;2024-01-16T06:51:14;-0.70;99.90
51637;DHT22;37713;53.254;6.460;2024-01-16T06:53:41;-0.70;99.90
51637;DHT22;37713;53.254;6.460;2024-01-16T06:56:07;-0.70;99.90
51637;DHT22;37713;53.254;6.460;2024-01-16T06:58:34;-0.70;99.90
51637;DHT22;37713;53.254;6.460;2024-01-16T07:01:01;-0.70;99.90
51637;DHT22;37713;53.254;6.460;2024-01-16T07:03:27;-0.70;99.90
51637;DHT22;37713;53.254;6.460;2024-01-16T07:05:53;-0.70;99.90
51637;DHT22;37713;53.254;6.460;2024-01-16T07:08:19;-0.70;99.90
51637;DHT22;37713;53.254;6.460;2024-01-16T07:10:45;-0.70;99.90
51637;DHT22;37713;53.254;6.460;2024-01-16T07:13:11;-0.70;99.90
51637;DHT22;37713;53.254;6.460;2024-01-16T07:15:38;-0.70;99.90
51637;DHT22;37713;53.254;6.460;2024-01-16T07:18:04;-0.80;99.90
51637;DHT22;37713;53.254;6.460;2024-01-16T07:20:30;-0.80;99.90
51637;DHT22;37713;53.254;6.460;2024-01-16T07:22:55;-0.80;99.90
51637;DHT22;37713;53.254;6.460;2024-01-16T07:25:21;-0.80;99.90
51637;DHT22;37713;53.254;6.460;2024-01-16T07:27:47;-0.80;99.90
51637;DHT22;37713;53.254;6.460;2024-01-16T07:30:16;-0.80;99.90
51637;DHT22;37713;53.254;6.460;2024-01-16T07:32:42;-0.80;99.90
51637;DHT22;37713;53.254;6.460;2024-01-16T07:35:08;-0.80;99.90
51637;DHT22;37713;53.254;6.460;2024-01-16T07:37:34;-0.70;99.90
51637;DHT22;37713;53.254;6.460;2024-01-16T07:39:59;-0.70;99.90
51637;DHT22;37713;53.254;6.460;2024-01-16T07:42:25;-0.70;99.90
51637;DHT22;37713;53.254;6.460;2024-01-16T07:44:52;-0.70;99.90
51637;DHT22;37713;53.254;6.460;2024-01-16T07:47:20;-0.70;99.90
51637;DHT22;37713;53.254;6.460;2024-01-16T07:49:47;-0.70;99.90
51637;DHT22;37713;53.254;6.460;2024-01-16T07:52:13;-0.70;99.90
51637;DHT22;37713;53.254;6.460;2024-01-16T07:54:39;-0.70;99.90
51637;DHT22;37713;53.254;6.460;2024-01-16T07:57:05;-0.70;99.90
51637;DHT22;37713;53.254;6.460;2024-01-16T07:59:32;-0.70;99.90
51637;DHT22;37713;53.254;6.460;2024-01-16T08:01:58;-0.60;99.90
51637;DHT22;37713;53.254;6.460;2024-01-16T08:04:24;-0.60;99.90
51637;DHT22;37713;53.254;6.460;2024-01-16T08:06:50;-0.60;99.90
51637;DHT22;37713;53.254;6.460;2024-01-16T08:09:16;-0.60;99.90
51637;DHT22;37713;53.254;6.460;2024-01-16T08:11:43;-0.50;99.90
51637;DHT22;37713;53.254;6.460;2024-01-16T08:14:09;-0.50;99.90
51637;DHT22;37713;53.254;6.460;2024-01-16T08:16:34;-0.50;99.90
51637;DHT22;37713;53.254;6.460;2024-01-16T08:19:01;-0.50;99.90
51637;DHT22;37713;53.254;6.460;2024-01-16T08:21:26;-0.50;99.90
51637;DHT22;37713;53.254;6.460;2024-01-16T08:23:52;-0.40;99.90
51637;DHT22;37713;53.254;6.460;2024-01-16T08:26:18;-0.40;99.90
51637;DHT22;37713;53.254;6.460;2024-01-16T08:28:44;-0.30;99.90
51637;DHT22;37713;53.254;6.460;2024-01-16T08:31:10;-0.30;99.90
51637;DHT22;37713;53.254;6.460;2024-01-16T08:33:36;-0.30;99.90
51637;DHT22;37713;53.254;6.460;2024-01-16T08:36:03;-0.20;99.90
51637;DHT22;37713;53.254;6.460;2024-01-16T08:38:29;-0.20;99.90
51637;DHT22;37713;53.254;6.460;2024-01-16T08:40:56;-0.10;99.90
51637;DHT22;37713;53.254;6.460;2024-01-16T08:43:22;-0.10;99.90
51637;DHT22;37713;53.254;6.460;2024-01-16T08:45:48;0.00;99.90
51637;DHT22;37713;53.254;6.460;2024-01-16T08:48:14;0.00;99.90
51637;DHT22;37713;53.254;6.460;2024-01-16T08:50:40;0.10;99.90
51637;DHT22;37713;53.254;6.460;2024-01-16T08:53:06;0.10;99.90
51637;DHT22;37713;53.254;6.460;2024-01-16T08:55:32;0.20;99.90
51637;DHT22;37713;53.254;6.460;2024-01-16T08:57:58;0.20;99.90
51637;DHT22;37713;53.254;6.460;2024-01-16T09:00:24;0.30;99.90
51637;DHT22;37713;53.254;6.460;2024-01-16T09:02:50;0.40;99.90
51637;DHT22;37713;53.254;6.460;2024-01-16T09:05:16;0.30;99.90
51637;DHT22;37713;53.254;6.460;2024-01-16T09:07:42;0.70;99.90
51637;DHT22;37713;53.254;6.460;2024-01-16T09:10:09;0.40;99.90
51637;DHT22;37713;53.254;6.460;2024-01-16T09:12:35;0.50;99.90
51637;DHT22;37713;53.254;6.460;2024-01-16T09:15:01;0.40;99.90
51637;DHT22;37713;53.254;6.460;2024-01-16T09:17:27;0.40;99.90
51637;DHT22;37713;53.254;6.460;2024-01-16T09:19:53;0.40;99.90
51637;DHT22;37713;53.254;6.460;2024-01-16T09:22:19;0.40;99.90
51637;DHT22;37713;53.254;6.460;2024-01-16T09:24:44;0.40;99.90
51637;DHT22;37713;53.254;6.460;2024-01-16T09:27:10;0.50;99.90
51637;DHT22;37713;53.254;6.460;2024-01-16T09:29:36;0.50;99.90
51637;DHT22;37713;53.254;6.460;2024-01-16T09:32:02;0.50;99.90
51637;DHT22;37713;53.254;6.460;2024-01-16T09:34:28;0.50;99.90
51637;DHT22;37713;53.254;6.460;2024-01-16T09:36:55;0.50;99.90
51637;DHT22;37713;53.254;6.460;2024-01-16T09:39:24;0.50;99.90
51637;DHT22;37713;53.254;6.460;2024-01-16T09:41:50;0.60;99.90
51637;DHT22;37713;53.254;6.460;2024-01-16T09:44:16;0.50;99.90
51637;DHT22;37713;53.254;6.460;2024-01-16T09:46:44;0.50;99.90
51637;DHT22;37713;53.254;6.460;2024-01-16T09:49:15;0.50;99.90
51637;DHT22;37713;53.254;6.460;2024-01-16T09:51:43;0.50;99.90
51637;DHT22;37713;53.254;6.460;2024-01-16T09:54:09;0.50;99.90
51637;DHT22;37713;53.254;6.460;2024-01-16T09:56:42;0.60;99.90
51637;DHT22;37713;53.254;6.460;2024-01-16T09:59:09;0.70;99.90
51637;DHT22;37713;53.254;6.460;2024-01-16T10:01:38;0.70;99.90
51637;DHT22;37713;53.254;6.460;2024-01-16T10:04:04;0.80;99.90
51637;DHT22;37713;53.254;6.460;2024-01-16T10:06:32;0.80;99.90
51637;DHT22;37713;53.254;6.460;2024-01-16T10:08:59;0.80;99.90
51637;DHT22;37713;53.254;6.460;2024-01-16T10:11:25;0.80;99.90
51637;DHT22;37713;53.254;6.460;2024-01-16T10:13:51;0.80;99.90
51637;DHT22;37713;53.254;6.460;2024-01-16T10:16:17;0.90;99.90
51637;DHT22;37713;53.254;6.460;2024-01-16T10:18:43;1.00;99.90
51637;DHT22;37713;53.254;6.460;2024-01-16T10:21:22;1.00;99.90
51637;DHT22;37713;53.254;6.460;2024-01-16T10:23:49;1.00;99.90
51637;DHT22;37713;53.254;6.460;2024-01-16T10:26:14;1.00;99.90
51637;DHT22;37713;53.254;6.460;2024-01-16T10:28:42;1.10;99.90
51637;DHT22;37713;53.254;6.460;2024-01-16T10:31:11;1.10;99.90
51637;DHT22;37713;53.254;6.460;2024-01-16T10:33:37;1.00;99.90
51637;DHT22;37713;53.254;6.460;2024-01-16T10:36:10;1.10;99.90
51637;DHT22;37713;53.254;6.460;2024-01-16T10:38:41;1.10;99.90
51637;DHT22;37713;53.254;6.460;2024-01-16T10:41:15;1.10;99.90
51637;DHT22;37713;53.254;6.460;2024-01-16T10:43:43;1.10;99.90
51637;DHT22;37713;53.254;6.460;2024-01-16T10:46:16;1.00;99.90
51637;DHT22;37713;53.254;6.460;2024-01-16T10:48:44;1.10;99.90
51637;DHT22;37713;53.254;6.460;2024-01-16T10:51:17;1.00;99.90
51637;DHT22;37713;53.254;6.460;2024-01-16T10:53:44;1.10;99.90
51637;DHT22;37713;53.254;6.460;2024-01-16T10:56:12;1.10;99.90
51637;DHT22;37713;53.254;6.460;2024-01-16T10:58:42;1.10;99.90
51637;DHT22;37713;53.254;6.460;2024-01-16T11:01:15;1.10;99.90
51637;DHT22;37713;53.254;6.460;2024-01-16T11:03:46;1.20;99.90
51637;DHT22;37713;53.254;6.460;2024-01-16T11:06:16;1.10;99.90
51637;DHT22;37713;53.254;6.460;2024-01-16T11:08:42;1.20;99.90
51637;DHT22;37713;53.254;6.460;2024-01-16T11:11:08;1.10;99.90
51637;DHT22;37713;53.254;6.460;2024-01-16T11:13:36;1.10;99.90
51637;DHT22;37713;53.254;6.460;2024-01-16T11:16:03;1.10;99.90
51637;DHT22;37713;53.254;6.460;2024-01-16T11:18:34;1.10;99.90
51637;DHT22;37713;53.254;6.460;2024-01-16T11:21:02;1.10;99.90
51637;DHT22;37713;53.254;6.460;2024-01-16T11:23:30;1.10;99.90
51637;DHT22;37713;53.254;6.460;2024-01-16T11:25:56;1.10;99.90
51637;DHT22;37713;53.254;6.460;2024-01-16T11:28:27;1.00;99.90
51637;DHT22;37713;53.254;6.460;2024-01-16T11:30:55;1.10;99.90
51637;DHT22;37713;53.254;6.460;2024-01-16T11:35:57;1.00;99.90
51637;DHT22;37713;53.254;6.460;2024-01-16T11:38:24;1.10;99.90
51637;DHT22;37713;53.254;6.460;2024-01-16T11:40:56;1.00;99.90
51637;DHT22;37713;53.254;6.460;2024-01-16T11:46:04;1.10;99.90
51637;DHT22;37713;53.254;6.460;2024-01-16T11:48:30;1.10;99.90
51637;DHT22;37713;53.254;6.460;2024-01-16T11:50:56;1.10;99.90
51637;DHT22;37713;53.254;6.460;2024-01-16T11:53:37;1.10;99.90
51637;DHT22;37713;53.254;6.460;2024-01-16T11:58:54;1.10;99.90
51637;DHT22;37713;53.254;6.460;2024-01-16T12:01:23;1.10;99.90
51637;DHT22;37713;53.254;6.460;2024-01-16T12:04:05;1.20;99.90
51637;DHT22;37713;53.254;6.460;2024-01-16T12:06:31;1.20;99.90
51637;DHT22;37713;53.254;6.460;2024-01-16T12:09:14;1.30;99.90
51637;DHT22;37713;53.254;6.460;2024-01-16T12:11:41;1.30;99.90
51637;DHT22;37713;53.254;6.460;2024-01-16T12:14:12;1.30;99.90
51637;DHT22;37713;53.254;6.460;2024-01-16T12:16:38;1.30;99.90
51637;DHT22;37713;53.254;6.460;2024-01-16T12:19:08;1.30;99.90
51637;DHT22;37713;53.254;6.460;2024-01-16T12:21:44;1.30;99.90
51637;DHT22;37713;53.254;6.460;2024-01-16T12:24:10;1.30;99.90
51637;DHT22;37713;53.254;6.460;2024-01-16T12:26:37;1.20;99.90
51637;DHT22;37713;53.254;6.460;2024-01-16T12:29:06;1.20;99.90
51637;DHT22;37713;53.254;6.460;2024-01-16T12:31:32;1.20;99.90
51637;DHT22;37713;53.254;6.460;2024-01-16T12:34:09;1.20;99.90
51637;DHT22;37713;53.254;6.460;2024-01-16T12:36:35;1.20;99.90
51637;DHT22;37713;53.254;6.460;2024-01-16T12:39:02;1.20;99.90
51637;DHT22;37713;53.254;6.460;2024-01-16T12:41:41;1.20;99.90
51637;DHT22;37713;53.254;6.460;2024-01-16T12:44:08;1.20;99.90
51637;DHT22;37713;53.254;6.460;2024-01-16T12:46:33;1.20;99.90
51637;DHT22;37713;53.254;6.460;2024-01-16T12:49:03;1.30;99.90
51637;DHT22;37713;53.254;6.460;2024-01-16T12:51:29;1.30;99.90
51637;DHT22;37713;53.254;6.460;2024-01-16T12:54:13;1.40;99.90
51637;DHT22;37713;53.254;6.460;2024-01-16T12:56:39;1.40;99.90
51637;DHT22;37713;53.254;6.460;2024-01-16T12:59:13;1.50;99.90
51637;DHT22;37713;53.254;6.460;2024-01-16T13:01:45;1.60;99.90
51637;DHT22;37713;53.254;6.460;2024-01-16T13:04:16;1.60;99.90
51637;DHT22;37713;53.254;6.460;2024-01-16T13:06:42;1.60;99.90
51637;DHT22;37713;53.254;6.460;2024-01-16T13:09:12;1.70;99.90
51637;DHT22;37713;53.254;6.460;2024-01-16T13:11:51;1.60;99.90
51637;DHT22;37713;53.254;6.460;2024-01-16T13:14:21;1.60;99.90
51637;DHT22;37713;53.254;6.460;2024-01-16T13:16:48;1.60;99.90
51637;DHT22;37713;53.254;6.460;2024-01-16T13:19:21;1.60;99.90
51637;DHT22;37713;53.254;6.460;2024-01-16T13:21:48;1.60;99.90
51637;DHT22;37713;53.254;6.460;2024-01-16T13:24:14;1.60;99.90
51637;DHT22;37713;53.254;6.460;2024-01-16T13:26:40;1.60;99.90
51637;DHT22;37713;53.254;6.460;2024-01-16T13:29:06;1.60;99.90
51637;DHT22;37713;53.254;6.460;2024-01-16T13:31:32;1.50;99.90
51637;DHT22;37713;53.254;6.460;2024-01-16T13:33:58;1.50;99.90
51637;DHT22;37713;53.254;6.460;2024-01-16T13:36:24;1.50;99.90
51637;DHT22;37713;53.254;6.460;2024-01-16T13:38:50;1.50;99.90
51637;DHT22;37713;53.254;6.460;2024-01-16T13:41:16;1.50;99.90
51637;DHT22;37713;53.254;6.460;2024-01-16T13:43:42;1.50;99.90
51637;DHT22;37713;53.254;6.460;2024-01-16T13:46:08;1.50;99.90
51637;DHT22;37713;53.254;6.460;2024-01-16T13:48:35;1.50;99.90
51637;DHT22;37713;53.254;6.460;2024-01-16T13:51:02;1.50;99.90
51637;DHT22;37713;53.254;6.460;2024-01-16T13:53:30;1.40;99.90
51637;DHT22;37713;53.254;6.460;2024-01-16T13:55:55;1.40;99.90
51637;DHT22;37713;53.254;6.460;2024-01-16T13:58:23;1.40;99.90
51637;DHT22;37713;53.254;6.460;2024-01-16T14:00:49;1.40;99.90
51637;DHT22;37713;53.254;6.460;2024-01-16T14:03:15;1.40;99.90
51637;DHT22;37713;53.254;6.460;2024-01-16T14:05:42;1.40;99.90
51637;DHT22;37713;53.254;6.460;2024-01-16T14:08:09;1.30;99.90
51637;DHT22;37713;53.254;6.460;2024-01-16T14:10:38;1.30;99.90
51637;DHT22;37713;53.254;6.460;2024-01-16T14:13:04;1.20;99.90
51637;DHT22;37713;53.254;6.460;2024-01-16T14:18:52;1.20;99.90
51637;DHT22;37713;53.254;6.460;2024-01-16T14:21:18;1.20;99.90
51637;DHT22;37713;53.254;6.460;2024-01-16T14:23:43;1.20;99.90
51637;DHT22;37713;53.254;6.460;2024-01-16T14:26:09;1.30;99.90
51637;DHT22;37713;53.254;6.460;2024-01-16T14:28:35;1.30;99.90
51637;DHT22;37713;53.254;6.460;2024-01-16T14:31:01;1.30;99.90
51637;DHT22;37713;53.254;6.460;2024-01-16T14:33:27;1.30;99.90
51637;DHT22;37713;53.254;6.460;2024-01-16T14:35:53;1.30;99.90
51637;DHT22;37713;53.254;6.460;2024-01-16T14:38:20;1.30;99.90
51637;DHT22;37713;53.254;6.460;2024-01-16T14:40:46;1.30;99.90
51637;DHT22;37713;53.254;6.460;2024-01-16T14:43:12;1.30;99.90
51637;DHT22;37713;53.254;6.460;2024-01-16T14:45:38;1.30;99.90
51637;DHT22;37713;53.254;6.460;2024-01-16T14:48:04;1.30;99.90
51637;DHT22;37713;53.254;6.460;2024-01-16T14:50:30;1.20;99.90
51637;DHT22;37713;53.254;6.460;2024-01-16T14:52:56;1.20;99.90
51637;DHT22;37713;53.254;6.460;2024-01-16T14:55:22;1.10;99.90
51637;DHT22;37713;53.254;6.460;2024-01-16T14:57:48;1.10;99.90
51637;DHT22;37713;53.254;6.460;2024-01-16T15:00:25;1.00;99.90
51637;DHT22;37713;53.254;6.460;2024-01-16T15:02:53;0.90;99.90
51637;DHT22;37713;53.254;6.460;2024-01-16T15:05:20;0.90;99.90
51637;DHT22;37713;53.254;6.460;2024-01-16T15:07:47;0.80;99.90
51637;DHT22;37713;53.254;6.460;2024-01-16T15:10:14;0.80;99.90
51637;DHT22;37713;53.254;6.460;2024-01-16T15:12:46;0.80;99.90
51637;DHT22;37713;53.254;6.460;2024-01-16T15:15:14;0.70;99.90
51637;DHT22;37713;53.254;6.460;2024-01-16T15:17:41;0.70;99.90
51637;DHT22;37713;53.254;6.460;2024-01-16T15:20:08;0.60;99.90
51637;DHT22;37713;53.254;6.460;2024-01-16T15:22:42;0.60;99.90
51637;DHT22;37713;53.254;6.460;2024-01-16T15:25:10;0.60;99.90
51637;DHT22;37713;53.254;6.460;2024-01-16T15:27:37;0.50;99.90
51637;DHT22;37713;53.254;6.460;2024-01-16T15:30:04;0.50;99.90
51637;DHT22;37713;53.254;6.460;2024-01-16T15:32:37;0.50;99.90
51637;DHT22;37713;53.254;6.460;2024-01-16T15:35:03;0.40;99.90
51637;DHT22;37713;53.254;6.460;2024-01-16T15:37:33;0.40;99.90
51637;DHT22;37713;53.254;6.460;2024-01-16T15:39:59;0.30;99.90
51637;DHT22;37713;53.254;6.460;2024-01-16T15:42:26;0.30;99.90
51637;DHT22;37713;53.254;6.460;2024-01-16T15:44:52;0.30;99.90
51637;DHT22;37713;53.254;6.460;2024-01-16T15:47:21;0.20;99.90